Flight Track Log - Related Links

Times and Time Zones

All times are in EDT time to prevent confusion due to time zone crossing. See the DAL854 flight status page for this flight to view local times or setup timezone preferences in your user account.

Time Position Orientation Groundspeed Altitude Reporting Facility
EDT Latitude Longitude Course Direction KTS MPH feet Rate Location/Type
Fri 10:11:36 AM 37.6333 -122.3500 58° Northeast 182 209 900  Level Northern Cal TRACON
Fri 10:12:37 AM 37.6833 -122.3000 38° Northeast 231 266 2,500 1,983 Climbing Northern Cal TRACON
Fri 10:13:31 AM 37.7167 -122.2500 50° Northeast 252 290 4,700 2,508 Climbing Northern Cal TRACON
Fri 10:14:00 AM 37.6355 -122.4302 117° Southeast  Level FlightAware Approximate
Fri 10:14:39 AM 37.7819 -122.1622 47° Northeast 270 311 7,600  Level Oakland Center
Fri 10:15:00 AM 37.6415 -122.2840 72° East  Level FlightAware Approximate
Fri 10:15:40 AM 37.8122 -122.0714 67° East 290 334 9,800  Level Oakland Center
Fri 10:16:00 AM 37.6888 -122.1392 58° Northeast  Level FlightAware Approximate
Fri 10:16:41 AM 37.8403 -121.9708 71° East 304 350 11,500  Level Oakland Center
Fri 10:17:42 AM 37.8689 -121.8514 73° East 351 404 13,200 1,820 Climbing Oakland Center
Fri 10:18:43 AM 37.9011 -121.7256 72° East 373 429 15,200 1,869 Climbing Oakland Center
Fri 10:19:44 AM 37.9306 -121.5925 74° East 392 451 17,000 1,770 Climbing Oakland Center
Fri 10:20:45 AM 37.9672 -121.4461 72° East 401 461 18,800 1,756 Climbing Oakland Center
Fri 10:21:47 AM 38.0008 -121.3072 73° East 414 476 20,600 1,561 Climbing Oakland Center
Fri 10:22:48 AM 38.0356 -121.1639 73° East 426 490 22,000 1,426 Climbing Oakland Center
Fri 10:23:49 AM 38.0708 -121.0178 73° East 436 502 23,500 1,426 Climbing Oakland Center
Fri 10:24:50 AM 38.0989 -120.8664 77° East 443 510 24,900 1,279 Climbing Oakland Center
Fri 10:25:51 AM 38.1272 -120.7131 77° East 449 517 26,100 1,328 Climbing Oakland Center
Fri 10:26:52 AM 38.1553 -120.5597 77° East 448 516 27,600 1,180 Climbing Oakland Center
Fri 10:27:53 AM 38.1881 -120.3739 77° East 450 518 28,500 976 Climbing Oakland Center
Fri 10:28:55 AM 38.2156 -120.2164 77° East 457 526 29,600 927 Climbing Oakland Center
Fri 10:29:56 AM 38.2453 -120.0592 76° East 459 528 30,400 934 Climbing Oakland Center
Fri 10:30:57 AM 38.2733 -119.9000 77° East 461 531 31,500 1,033 Climbing Oakland Center
Fri 10:31:58 AM 38.3022 -119.7433 77° East 457 526 32,500 738 Climbing Oakland Center
Fri 10:32:59 AM 38.3289 -119.5850 78° East 457 526 33,000 246 Climbing Oakland Center
Fri 10:34:00 AM 38.3525 -119.4283 79° East 455 524 33,000  Level Oakland Center
Fri 10:35:01 AM 38.3778 -119.2706 78° East 455 524 33,000  Level Oakland Center
Fri 10:36:03 AM 38.4044 -119.1156 78° East 452 520 33,000  Level Oakland Center
Fri 10:37:04 AM 38.4350 -118.9289 78° East 450 518 33,000  Level Oakland Center
Fri 10:38:05 AM 38.4603 -118.7744 78° East 448 516 33,000  Level Oakland Center
Fri 10:39:06 AM 38.4856 -118.6200 78° East 447 514 33,000  Level Oakland Center
Fri 10:40:07 AM 38.5106 -118.4639 78° East 450 518 33,000  Level Oakland Center
Fri 10:41:08 AM 38.5353 -118.3083 78° East 450 518 33,000  Level Oakland Center
Fri 10:42:09 AM 38.5603 -118.1522 78° East 450 518 33,000  Level Oakland Center
Fri 10:43:10 AM 38.5850 -117.9942 79° East 449 517 33,000  Level Oakland Center
Fri 10:44:12 AM 38.6100 -117.8361 79° East 451 519 33,000  Level Oakland Center
Fri 10:45:13 AM 38.6339 -117.6772 79° East 453 521 33,000  Level Oakland Center
Fri 10:46:14 AM 38.6581 -117.5175 79° East 453 521 33,000  Level Oakland Center
Fri 10:47:15 AM 38.6819 -117.3586 79° East 454 522 33,000  Level Oakland Center
Fri 10:47:32 AM 38.6914 -117.2956 79° East 453 521 33,000  Level Salt Lake Center
Fri 10:48:34 AM 38.7139 -117.1381 80° East 449 517 33,000  Level Salt Lake Center
Fri 10:49:18 AM 38.7286 -117.0428 79° East 450 518 33,000  Level Oakland Center
Fri 10:50:18 AM 38.7517 -116.8867 79° East 446 513 33,000  Level Oakland Center
Fri 10:50:37 AM 38.7597 -116.8236 81° East 446 513 33,000  Level Salt Lake Center
Fri 10:51:39 AM 38.7828 -116.6672 79° East 445 512 33,000  Level Salt Lake Center
Fri 10:52:21 AM 38.8011 -116.5419 79° East 446 513 33,000  Level Oakland Center
Fri 10:53:22 AM 38.8228 -116.3833 80° East 450 518 33,000  Level Oakland Center
Fri 10:53:43 AM 38.8267 -116.3522 81° East 449 517 33,000  Level Salt Lake Center
Fri 10:54:45 AM 38.8489 -116.1942 80° East 449 517 33,000  Level Salt Lake Center
Fri 10:55:47 AM 38.8750 -116.0036 80° East 451 519 33,000  Level Salt Lake Center
Fri 10:56:49 AM 38.8972 -115.8450 80° East 451 519 33,000  Level Salt Lake Center
Fri 10:57:51 AM 38.9194 -115.6850 80° East 453 521 33,000  Level Salt Lake Center
Fri 10:58:53 AM 38.9394 -115.5247 81° East 453 521 33,000  Level Salt Lake Center
Fri 10:59:55 AM 38.9644 -115.3492 80° East 452 520 33,000  Level Salt Lake Center
Fri 11:00:57 AM 38.9847 -115.1889 81° East 454 522 33,000  Level Salt Lake Center
Fri 11:01:59 AM 39.0061 -115.0286 80° East 455 524 33,000  Level Salt Lake Center
Fri 11:03:01 AM 39.0269 -114.8708 80° East 449 517 33,000  Level Salt Lake Center
Fri 11:04:03 AM 39.0464 -114.7119 81° East 451 519 33,000  Level Salt Lake Center
Fri 11:05:05 AM 39.0669 -114.5539 80° East 450 518 33,000  Level Salt Lake Center
Fri 11:06:07 AM 39.0903 -114.3642 81° East 448 516 33,000  Level Salt Lake Center
Fri 11:07:09 AM 39.1094 -114.2072 81° East 446 513 33,000  Level Salt Lake Center
Fri 11:08:11 AM 39.1286 -114.0497 81° East 446 513 33,000  Level Salt Lake Center
Fri 11:09:13 AM 39.1467 -113.8892 82° East 451 519 33,000  Level Salt Lake Center
Fri 11:10:15 AM 39.1661 -113.7297 81° East 452 520 33,000  Level Salt Lake Center
Fri 11:11:17 AM 39.1850 -113.5697 81° East 451 519 33,000  Level Salt Lake Center
Fri 11:12:19 AM 39.2064 -113.3769 82° East 453 521 33,000  Level Salt Lake Center
Fri 11:13:21 AM 39.2250 -113.2178 81° East 450 518 33,000  Level Salt Lake Center
Fri 11:14:23 AM 39.2428 -113.0564 82° East 453 521 33,000  Level Salt Lake Center
Fri 11:15:25 AM 39.2608 -112.8947 82° East 455 524 33,000  Level Salt Lake Center
Fri 11:16:27 AM 39.2778 -112.7344 82° East 452 520 33,000  Level Salt Lake Center
Fri 11:17:29 AM 39.2975 -112.5589 82° East 451 519 33,000  Level Salt Lake Center
Fri 11:18:31 AM 39.3222 -112.4033 78° East 447 514 33,000  Level Salt Lake Center
Fri 11:19:33 AM 39.3514 -112.2489 76° East 444 511 33,000  Level Salt Lake Center
Fri 11:20:35 AM 39.3794 -112.0950 77° East 442 509 33,000  Level Salt Lake Center
Fri 11:21:37 AM 39.4142 -111.9117 76° East 441 507 33,000  Level Salt Lake Center
Fri 11:22:39 AM 39.4417 -111.7581 77° East 441 507 33,000  Level Salt Lake Center
Fri 11:23:41 AM 39.4697 -111.6044 77° East 442 509 33,000  Level Salt Lake Center
Fri 11:24:43 AM 39.4972 -111.4522 77° East 438 504 33,000  Level Salt Lake Center
Fri 11:25:45 AM 39.5236 -111.3017 77° East 431 496 33,000  Level Salt Lake Center
Fri 11:26:47 AM 39.5522 -111.1397 77° East 423 487 33,000  Level Salt Lake Center
Fri 11:27:49 AM 39.5806 -110.9750 77° East 421 484 33,000  Level Salt Lake Center
Fri 11:28:51 AM 39.6061 -110.8331 77° East 422 486 33,000  Level Salt Lake Center
Fri 11:29:53 AM 39.6336 -110.6686 78° East 419 482 33,000  Level Salt Lake Center
Fri 11:30:55 AM 39.6578 -110.5267 77° East 420 483 33,000  Level Salt Lake Center
Fri 11:31:57 AM 39.6822 -110.3872 77° East 417 480 33,000  Level Salt Lake Center
Fri 11:32:59 AM 39.7078 -110.2222 79° East 416 479 33,000  Level Salt Lake Center
Fri 11:34:01 AM 39.7322 -110.0811 77° East 419 482 33,000  Level Salt Lake Center
Fri 11:35:03 AM 39.7600 -109.9158 78° East 419 482 33,000  Level Salt Lake Center
Fri 11:36:05 AM 39.7853 -109.7744 77° East 420 483 33,000  Level Salt Lake Center
Fri 11:37:07 AM 39.8236 -109.6128 73° East 418 481 33,000  Level Salt Lake Center
Fri 11:37:22 AM 39.8283 -109.5878 76° East 418 481 33,000  Level Denver Center
Fri 11:38:24 AM 39.8647 -109.4239 74° East 422 486 33,000  Level Denver Center
Fri 11:39:26 AM 39.8975 -109.2839 73° East 421 484 33,000 581 Level Denver Center
Fri 11:40:28 AM 39.9331 -109.1200 74° East 418 481 34,200 982 Climbing Denver Center
Fri 11:41:16 AM 39.9531 -109.0289 74° East 414 476 34,800 436 Climbing Salt Lake Center
Fri 11:42:18 AM 39.9889 -108.8658 74° East 416 479 35,000 97 Climbing Salt Lake Center
Fri 11:43:20 AM 40.0200 -108.7250 74° East 418 481 35,000  Level Salt Lake Center
Fri 11:44:22 AM 40.0544 -108.5597 75° East 420 483 35,000  Level Salt Lake Center
Fri 11:45:24 AM 40.0847 -108.4183 74° East 419 482 35,000  Level Salt Lake Center
Fri 11:46:26 AM 40.1197 -108.2553 74° East 418 481 35,000  Level Salt Lake Center
Fri 11:47:28 AM 40.1481 -108.1147 75° East 417 480 35,000  Level Salt Lake Center
Fri 11:48:30 AM 40.1828 -107.9525 74° East 415 478 35,000  Level Salt Lake Center
Fri 11:49:46 AM 40.2156 -107.7900 75° East 413 475 35,000  Level Denver Center
Fri 11:50:48 AM 40.2494 -107.6269 75° East 414 476 35,000  Level Denver Center
Fri 11:51:50 AM 40.2789 -107.4861 75° East 417 480 35,000  Level Denver Center
Fri 11:52:52 AM 40.3108 -107.3200 76° East 419 482 35,000  Level Denver Center
Fri 11:53:54 AM 40.3403 -107.1786 75° East 420 483 35,000  Level Denver Center
Fri 11:54:56 AM 40.3739 -107.0117 75° East 423 487 35,000  Level Denver Center
Fri 11:55:58 AM 40.4042 -106.8597 75° East 424 488 35,000  Level Denver Center
Fri 11:57:00 AM 40.4347 -106.7103 75° East 423 487 35,000  Level Denver Center
Fri 11:58:03 AM 40.4639 -106.5589 76° East 425 489 35,000  Level Denver Center
Fri 11:59:05 AM 40.4964 -106.3919 76° East 421 484 35,000  Level Denver Center
Fri 12:00:07 PM 40.5231 -106.2497 76° East 420 483 35,000  Level Denver Center
Fri 12:01:09 PM 40.5500 -106.1089 76° East 417 480 35,000  Level Denver Center
Fri 12:02:11 PM 40.5825 -105.9361 76° East 414 476 35,000  Level Denver Center
Fri 12:03:13 PM 40.6094 -105.7875 77° East 415 478 35,000  Level Denver Center
Fri 12:04:15 PM 40.6381 -105.6394 76° East 416 479 35,000  Level Denver Center
Fri 12:05:17 PM 40.6656 -105.4919 76° East 415 478 35,000  Level Denver Center
Fri 12:06:19 PM 40.6947 -105.3214 77° East 428 493 35,000  Level Denver Center
Fri 12:07:21 PM 40.7222 -105.1742 76° East 432 497 35,000  Level Denver Center
Fri 12:08:23 PM 40.7522 -105.0019 77° East 431 496 35,000  Level Denver Center
Fri 12:09:25 PM 40.7794 -104.8558 76° East 429 494 35,000  Level Denver Center
Fri 12:10:27 PM 40.8114 -104.6806 76° East 438 504 35,000  Level Denver Center
Fri 12:11:29 PM 40.8356 -104.5306 78° East 441 507 35,000  Level Denver Center
Fri 12:12:31 PM 40.8664 -104.3603 76° East 431 496 35,000  Level Denver Center
Fri 12:13:33 PM 40.8925 -104.2103 77° East 434 499 35,000  Level Denver Center
Fri 12:14:35 PM 40.9231 -104.0356 77° East 439 505 35,000  Level Denver Center
Fri 12:15:37 PM 40.9478 -103.8875 77° East 433 498 35,000  Level Denver Center
Fri 12:16:39 PM 40.9725 -103.7378 78° East 435 501 35,000  Level Denver Center
Fri 12:17:41 PM 41.0006 -103.5658 78° East 431 496 35,000  Level Denver Center
Fri 12:18:43 PM 41.0242 -103.4158 78° East 435 501 35,000  Level Denver Center
Fri 12:19:45 PM 41.0531 -103.2428 77° East 433 498 35,000  Level Denver Center
Fri 12:20:48 PM 41.0783 -103.0922 77° East 436 502 35,000  Level Denver Center
Fri 12:21:50 PM 41.1042 -102.9061 80° East 437 503 35,000  Level Denver Center
Fri 12:22:52 PM 41.1128 -102.7525 86° East 438 504 35,000  Level Denver Center
Fri 12:23:54 PM 41.1261 -102.5975 83° East 442 509 35,000  Level Denver Center
Fri 12:24:56 PM 41.1408 -102.4158 84° East 444 511 35,000  Level Denver Center
Fri 12:25:58 PM 41.1514 -102.2589 85° East 445 512 35,000  Level Denver Center
Fri 12:27:00 PM 41.1650 -102.0744 84° East 449 517 35,000  Level Denver Center
Fri 12:28:02 PM 41.1775 -101.9158 84° East 451 519 35,000  Level Denver Center
Fri 12:29:04 PM 41.1914 -101.7267 84° East 458 527 35,000  Level Denver Center
Fri 12:30:06 PM 41.2017 -101.5667 85° East 457 526 35,000  Level Denver Center
Fri 12:31:08 PM 41.2150 -101.3789 85° East 456 525 35,000  Level Denver Center
Fri 12:32:10 PM 41.2258 -101.2172 85° East 457 526 35,000  Level Denver Center
Fri 12:33:12 PM 41.2367 -101.0278 86° East 459 528 35,000  Level Denver Center
Fri 12:34:14 PM 41.2478 -100.8650 85° East 460 529 35,000  Level Denver Center
Fri 12:35:16 PM 41.2578 -100.7036 85° East 455 524 35,000  Level Denver Center
Fri 12:36:18 PM 41.2692 -100.5139 85° East 458 527 35,000  Level Denver Center
Fri 12:37:20 PM 41.2789 -100.3528 85° East 456 525 35,000  Level Denver Center
Fri 12:38:22 PM 41.2892 -100.1636 86° East 457 526 35,000  Level Denver Center
Fri 12:39:24 PM 41.2981 -100.0008 86° East 459 528 35,000  Level Denver Center
Fri 12:40:26 PM 41.3086 -99.8089 86° East 463 533 35,000  Level Denver Center
Fri 12:41:28 PM 41.3178 -99.6439 86° East 465 535 35,000  Level Denver Center
Fri 12:42:30 PM 41.3253 -99.4761 87° East 471 542 35,000  Level Denver Center
Fri 12:43:32 PM 41.3358 -99.2739 86° East 468 539 35,000  Level Denver Center
Fri 12:44:34 PM 41.3453 -99.0986 86° East 470 541 35,000  Level Denver Center
Fri 12:45:36 PM 41.3519 -98.9225 87° East 470 541 35,000  Level Denver Center
Fri 12:46:22 PM 41.3567 -98.7983 87° East 469 540 35,000  Level Minneapolis Center
Fri 12:47:24 PM 41.3644 -98.6242 87° East 471 542 35,000  Level Minneapolis Center
Fri 12:48:26 PM 41.3733 -98.4269 86° East 475 547 35,000  Level Minneapolis Center
Fri 12:49:28 PM 41.3908 -98.2544 82° East 472 543 35,000  Level Minneapolis Center
Fri 12:50:30 PM 41.4236 -98.0719 76° East 472 543 35,000  Level Minneapolis Center
Fri 12:51:32 PM 41.4517 -97.9014 78° East 472 543 35,000  Level Minneapolis Center
Fri 12:52:34 PM 41.4808 -97.7303 77° East 474 545 35,000  Level Minneapolis Center
Fri 12:53:36 PM 41.5086 -97.5561 78° East 477 549 35,000  Level Minneapolis Center
Fri 12:54:38 PM 41.5358 -97.3833 78° East 477 549 35,000  Level Minneapolis Center
Fri 12:55:40 PM 41.5650 -97.2103 77° East 479 551 35,000  Level Minneapolis Center
Fri 12:56:42 PM 41.5917 -97.0350 78° East 479 551 35,000  Level Minneapolis Center
Fri 12:57:44 PM 41.6242 -96.8261 78° East 478 550 35,000  Level Minneapolis Center
Fri 12:58:46 PM 41.6514 -96.6514 78° East 478 550 35,000  Level Minneapolis Center
Fri 12:59:48 PM 41.6789 -96.4783 78° East 475 547 35,000  Level Minneapolis Center
Fri 01:00:50 PM 41.7047 -96.3031 79° East 476 548 35,000  Level Minneapolis Center
Fri 01:01:52 PM 41.7311 -96.1264 79° East 478 550 35,000  Level Minneapolis Center
Fri 01:02:55 PM 41.7572 -95.9472 79° East 484 557 35,000  Level Minneapolis Center
Fri 01:03:57 PM 41.7836 -95.7703 79° East 482 555 35,000  Level Minneapolis Center
Fri 01:04:59 PM 41.8086 -95.5906 79° East 486 559 35,000  Level Minneapolis Center
Fri 01:06:01 PM 41.8394 -95.3761 79° East 487 560 35,000  Level Minneapolis Center
Fri 01:07:03 PM 41.8664 -95.1983 78° East 486 559 35,000  Level Minneapolis Center
Fri 01:08:05 PM 41.8906 -95.0181 80° East 488 562 35,000  Level Minneapolis Center
Fri 01:09:07 PM 41.9156 -94.8372 79° East 491 565 35,000  Level Minneapolis Center
Fri 01:10:09 PM 41.9381 -94.6569 80° East 489 563 35,000  Level Minneapolis Center
Fri 01:11:11 PM 41.9619 -94.4756 80° East 491 565 35,000  Level Minneapolis Center
Fri 01:12:13 PM 41.9917 -94.2592 79° East 490 564 35,000  Level Minneapolis Center
Fri 01:13:15 PM 42.0153 -94.0778 80° East 491 565 35,000  Level Minneapolis Center
Fri 01:14:17 PM 42.0386 -93.8964 80° East 492 566 35,000  Level Minneapolis Center
Fri 01:15:19 PM 42.0633 -93.7125 80° East 503 579 35,000  Level Minneapolis Center
Fri 01:16:21 PM 42.0861 -93.5297 80° East 501 577 35,000  Level Minneapolis Center
Fri 01:17:23 PM 42.1083 -93.3461 81° East 503 579 35,000  Level Minneapolis Center
Fri 01:18:25 PM 42.1364 -93.1261 80° East 503 579 35,000  Level Minneapolis Center
Fri 01:19:27 PM 42.1578 -92.9419 81° East 503 579 35,000  Level Minneapolis Center
Fri 01:20:30 PM 42.1781 -92.7586 81° East 499 574 35,000  Level Minneapolis Center
Fri 01:21:32 PM 42.2003 -92.5758 81° East 501 577 35,000  Level Minneapolis Center
Fri 01:22:34 PM 42.2225 -92.3936 81° East 499 574 35,000  Level Minneapolis Center
Fri 01:23:36 PM 42.2472 -92.1747 81° East 499 574 35,000  Level Minneapolis Center
Fri 01:24:32 PM 42.2619 -92.0283 82° East 501 577 35,000  Level Chicago Center
Fri 01:25:35 PM 42.2872 -91.8119 81° East 498 573 35,000  Level Chicago Center
Fri 01:26:37 PM 42.3061 -91.6314 82° East 496 571 35,000  Level Chicago Center
Fri 01:27:39 PM 42.3253 -91.4506 82° East 495 570 35,000  Level Chicago Center
Fri 01:28:41 PM 42.3444 -91.2703 82° East 496 571 35,000  Level Chicago Center
Fri 01:29:43 PM 42.3664 -91.0547 82° East 492 566 35,000  Level Chicago Center
Fri 01:30:45 PM 42.3847 -90.8728 82° East 494 568 35,000  Level Chicago Center
Fri 01:31:47 PM 42.4061 -90.6931 81° East 493 567 35,000 48 Level Chicago Center
Fri 01:32:49 PM 42.4575 -90.5239 68° East 492 566 35,100 581 Climbing Chicago Center
Fri 01:33:51 PM 42.5200 -90.3200 67° East 492 566 36,200 823 Climbing Chicago Center
Fri 01:34:53 PM 42.5717 -90.1506 67° East 491 565 36,800 387 Climbing Chicago Center
Fri 01:35:55 PM 42.6242 -89.9767 68° East 501 577 37,000 97 Climbing Chicago Center
Fri 01:36:57 PM 42.6794 -89.7869 68° East 504 580 37,000  Level Chicago Center
Fri 01:37:59 PM 42.7319 -89.6133 68° East 501 577 37,000  Level Chicago Center
Fri 01:39:01 PM 42.7842 -89.4386 68° East 500 575 37,000  Level Chicago Center
Fri 01:40:03 PM 42.8433 -89.2333 68° East 499 574 37,000  Level Chicago Center
Fri 01:41:05 PM 42.8944 -89.0589 68° East 498 573 37,000  Level Chicago Center
Fri 01:42:07 PM 42.9450 -88.8833 68° East 497 572 37,000  Level Chicago Center
Fri 01:43:09 PM 42.9953 -88.7086 68° East 498 573 37,000  Level Chicago Center
Fri 01:44:11 PM 43.0447 -88.5317 69° East 500 575 37,000  Level Chicago Center
Fri 01:45:13 PM 43.1033 -88.3264 69° East 501 577 37,000  Level Chicago Center
Fri 01:46:15 PM 43.1342 -88.1439 77° East 498 573 37,000  Level Chicago Center
Fri 01:47:17 PM 43.1567 -87.9556 81° East 501 577 37,000  Level Chicago Center
Fri 01:48:19 PM 43.1794 -87.7694 80° East 500 575 37,000 -194 Level Chicago Center
Fri 01:49:21 PM 43.2067 -87.5528 80° East 496 571 36,600 -677 Descending Chicago Center
Fri 01:50:23 PM 43.2278 -87.3708 81° East 485 558 35,600 -1,065 Descending Chicago Center
Fri 01:51:25 PM 43.2475 -87.2144 80° East 480 552 34,400 -1,258 Descending Chicago Center
Fri 01:52:27 PM 43.2728 -86.9981 81° East 479 551 33,000 -677 Descending Chicago Center
Fri 01:53:29 PM 43.2917 -86.8164 82° East 481 554 33,000  Level Chicago Center
Fri 01:54:31 PM 43.3128 -86.6364 81° East 479 551 33,000  Level Chicago Center
Fri 01:55:33 PM 43.3333 -86.4550 81° East 480 552 33,000  Level Chicago Center
Fri 01:56:35 PM 43.3531 -86.2719 82° East 481 554 33,000  Level Chicago Center
Fri 01:57:37 PM 43.3728 -86.0878 82° East 482 555 33,000 -774 Level Chicago Center
Fri 01:58:39 PM 43.3708 -85.9050 91° East 477 549 31,400 -1,839 Descending Chicago Center
Fri 01:59:41 PM 43.3400 -85.7314 104° East 468 539 29,200 -2,274 Descending Chicago Center
Fri 02:00:43 PM 43.3036 -85.5317 104° East 452 520 26,700 -2,177 Descending Chicago Center
Fri 02:01:45 PM 43.2756 -85.3714 103° East 437 503 24,700 -1,939 Descending Chicago Center
Fri 02:02:22 PM 43.2547 -85.2758 107° East 453 521 23,500 -1,052 Descending Cleveland Center
Fri 02:03:22 PM 43.2278 -85.1197 103° East 425 489 23,000 -250 Descending Cleveland Center
Fri 02:04:22 PM 43.1939 -84.9664 107° East 425 489 23,000  Level Cleveland Center
Fri 02:05:22 PM 43.1536 -84.8183 110° East 420 483 23,000  Level Cleveland Center
Fri 02:06:22 PM 43.1089 -84.6700 112° Southeast 420 483 23,000 -65 Level Cleveland Center
Fri 02:06:55 PM 43.0958 -84.6153 108° East 416 479 22,900 -1,389 Descending Chicago Center
Fri 02:07:57 PM 43.0472 -84.4492 112° Southeast 395 455 20,800 -1,951 Descending Chicago Center
Fri 02:08:58 PM 43.0069 -84.3072 111° Southeast 401 461 18,900 -1,765 Descending Chicago Center
Fri 02:09:22 PM 42.9914 -84.2650 117° Southeast 399 459 18,300 -1,929 Descending Cleveland Center
Fri 02:10:22 PM 42.9503 -84.1119 110° East 388 447 16,200 -1,850 Descending Cleveland Center
Fri 02:11:22 PM 42.9142 -83.9936 113° Southeast 387 445 14,600 -1,650 Descending Cleveland Center
Fri 02:12:22 PM 42.8739 -83.8669 113° Southeast 375 432 12,900 -1,393 Descending Cleveland Center
Fri 02:13:14 PM 42.8397 -83.7544 112° Southeast 335 386 12,000 -720 Descending Cleveland Center
Fri 02:14:27 PM 42.7619 -83.6942 150° Southeast 241 277 11,400 -977 Descending Cleveland Center
Fri 02:15:23 PM 42.7067 -83.6603 156° South 247 284 9,900 -1,409 Descending Cleveland Center
Fri 02:16:22 PM 42.6411 -83.6203 156° South 249 287 8,700 -1,406 Descending Cleveland Center
Fri 02:17:31 PM 42.5800 -83.5639 146° Southeast 257 296 6,900 -1,258 Descending Cleveland Center
Fri 02:18:26 PM 42.5506 -83.4919 119° Southeast 256 295 6,100 -462 Descending Cleveland Center
Fri 02:19:28 PM 42.5819 -83.4031 64° Northeast 244 281 6,000 -244 Descending Cleveland Center
Fri 02:20:29 PM 42.5736 -83.3211 98° East 217 250 5,600 -787 Descending Cleveland Center
Fri 02:21:30 PM 42.5547 -83.2383 107° East 213 245 4,400 -787 Descending Cleveland Center
Fri 02:22:31 PM 42.5097 -83.1942 144° Southeast 189 217 4,000 -195 Descending Cleveland Center
Fri 02:23:33 PM 42.4597 -83.1950 181° South 174 200 4,000  Level Cleveland Center
Fri 02:24:34 PM 42.4172 -83.2242 207° Southwest 176 203 4,000  Level Cleveland Center
Fri 02:25:36 PM 42.3728 -83.2589 210° Southwest 168 193 4,000 -439 Level Cleveland Center
Fri 02:26:37 PM 42.3325 -83.2881 208° Southwest 163 188 3,100 -885 Descending Cleveland Center

Login

Don't have an account? Register now (free) for customized features, flight alerts, and more!